Mathews, Virginia
Current Conditions -  °F | °C
As of 10:35 AM on Friday 19 Dec 2014 (Local Time) from KW75 Reporting Station
Clear Clear  
Wind Chill: 32°   Ceiling: Unl
Heat Index: 39°   Visibility: 10mi
Dew Point: 25°   Wind: 12mph
Humidity: 58%   Direction: 350°N
Pressure: 30.18"   Gusts: NA
Location:  37.44°N, 76.32°W
Report Text: KW75 191535Z AUTO 35010KT 10SM CLR 04/M04 A3018 RMK AO1 T00391037
Loading
Personal Weather Stations






























Interactive Weather Map New forecast layout! Learn more

10-Day Weather Forecast

Advertisements
Track Severe Weather on mobile